Pagina principale
METAR-TAF:

METAR-TAF

Aeroporti :

Bamako, Mali

Aeroporto Modibo Keïta

latitudine: 12-32N, longitudine: 007-57W, altezza: 380 m

Osservazione

Il bollettino è stato emesso 18 minuti fa, alle 13:30 UTC
Vento 4 kt da nord
Temperature 34°C
Umidità 23%
Pressione 1011 hPa
Visibilità 10 km o più
nessuna nube inferiore a 1500 m e nessun cumulonembo

METAR: GABS 241330Z 35004KT CAVOK 34/10 Q1011 NOSIG

Ora: 13:48 (13:48 UTC)

Previsione

Il bollettino è stato emesso 2 ore e 38 minuti fa, alle 11:10 UTC
Previsione valida dal 24 alle 12 UTC al 25 alle 18 UTC
Vento 8 kt da nord-ovest
Visibilità 10 km o più
nessuna nube inferiore a 1500 m e nessun cumulonembo
Evoluzione graduale
dal 24 alle 22 UTC al 24 alle 24 UTC
Vento 8 kt da nord/nord-est

TAF: GABS 241110Z 2412/2518 32008KT CAVOK BECMG 2422/2424 02008KT

Osservazioni e previsioni meteorologiche di più di 4000 aeroporti (messaggi METAR e TAF).

Le stazioni disponibili sono rappresentate dai dischi gialli e rossi sulla carta.

Puntare il mouse per vedere il nome della stazione.

Clicca sopra per visualizzare le osservazioni e previsioni meteorologiche.

Per cambiare la mappa : fare clic sui pulsanti verdi con una croce nera per ingrandire, il pulsante verde con un trattino per diminuire, o sulla freccia verde per le mappe adiacenti.


METAR-TAF: